createdAt,value
2018-09-01T00:01:09.415Z,1.03
2018-09-01T00:03:37.630Z,1.23
2018-09-01T00:06:06.096Z,1.30
2018-09-01T00:08:34.954Z,1.73
2018-09-01T00:11:03.383Z,1.10
2018-09-01T00:13:31.756Z,2.47
2018-09-01T00:16:00.115Z,7.10
2018-09-01T00:18:28.492Z,1.23
2018-09-01T00:20:56.832Z,2.80
2018-09-01T00:23:25.401Z,3.00
2018-09-01T00:25:53.806Z,1.90
2018-09-01T00:28:22.119Z,3.00
2018-09-01T00:30:50.651Z,2.43
2018-09-01T00:33:20.698Z,1.00
2018-09-01T00:38:33.279Z,1.40
2018-09-01T00:41:02.904Z,1.17
2018-09-01T00:43:31.991Z,1.33
2018-09-01T00:46:00.451Z,3.47
2018-09-01T00:48:29.154Z,0.73
2018-09-01T00:51:00.155Z,1.00
2018-09-01T00:53:28.454Z,1.93
2018-09-01T00:58:35.420Z,1.50
2018-09-01T01:01:03.770Z,1.73
2018-09-01T01:03:32.000Z,3.77
2018-09-01T01:06:00.403Z,2.53
2018-09-01T01:08:28.673Z,3.63
2018-09-01T01:10:57.191Z,1.17
2018-09-01T01:13:25.567Z,1.17
2018-09-01T01:15:53.891Z,1.27
2018-09-01T01:21:01.136Z,3.00
2018-09-01T01:23:29.482Z,2.17
2018-09-01T01:28:35.916Z,1.80
2018-09-01T01:31:04.567Z,1.30
2018-09-01T01:33:33.777Z,1.83
2018-09-01T01:36:02.287Z,7.73
2018-09-01T01:38:30.570Z,1.93
2018-09-01T01:40:58.863Z,1.30
2018-09-01T01:43:26.973Z,1.77
2018-09-01T01:45:55.735Z,3.17
2018-09-01T01:48:24.059Z,3.90
2018-09-01T01:50:52.376Z,1.10
2018-09-01T01:53:20.945Z,4.27
2018-09-01T01:55:49.493Z,1.77
2018-09-01T01:58:17.940Z,1.30
2018-09-01T02:00:46.369Z,1.53
2018-09-01T02:03:14.745Z,3.00
2018-09-01T02:05:43.432Z,1.37
2018-09-01T02:08:11.951Z,5.57
2018-09-01T02:10:40.432Z,0.90
2018-09-01T02:13:08.910Z,1.43
2018-09-01T02:18:16.877Z,2.43
2018-09-01T02:20:45.201Z,1.47
2018-09-01T02:23:13.928Z,1.17
2018-09-01T02:25:42.524Z,0.77
2018-09-01T02:28:11.356Z,1.00
2018-09-01T02:30:40.155Z,1.40
2018-09-01T02:33:09.449Z,3.33
2018-09-01T02:35:38.393Z,3.63
2018-09-01T02:38:07.629Z,1.77
2018-09-01T02:40:36.367Z,1.27
2018-09-01T02:43:05.072Z,1.20
2018-09-01T02:45:33.395Z,0.97
2018-09-01T02:48:02.112Z,1.17
2018-09-01T02:50:30.565Z,3.17
2018-09-01T02:53:01.279Z,1.63
2018-09-01T02:55:29.446Z,1.13
2018-09-01T02:57:57.804Z,1.07
2018-09-01T03:00:31.727Z,1.53
2018-09-01T03:03:00.105Z,1.57
2018-09-01T03:05:28.394Z,1.03
2018-09-01T03:07:56.706Z,1.30
2018-09-01T03:10:25.282Z,1.13
2018-09-01T03:12:53.636Z,3.20
2018-09-01T03:15:21.887Z,1.30
2018-09-01T03:17:50.267Z,3.43
2018-09-01T03:20:18.730Z,1.87
2018-09-01T03:22:47.294Z,1.73
2018-09-01T03:25:15.626Z,2.27
2018-09-01T03:27:43.862Z,2.63
2018-09-01T03:30:12.381Z,1.30
2018-09-01T03:32:40.735Z,4.30
2018-09-01T03:35:09.046Z,0.83
2018-09-01T03:37:37.627Z,1.67
2018-09-01T03:40:06.882Z,0.87
2018-09-01T03:42:35.804Z,1.33
2018-09-01T03:45:04.037Z,2.00
2018-09-01T03:47:32.395Z,1.43
2018-09-01T03:50:00.693Z,1.47
2018-09-01T03:52:29.143Z,0.90
2018-09-01T03:54:57.441Z,2.50
2018-09-01T03:57:25.590Z,1.00
2018-09-01T03:59:54.151Z,0.87
2018-09-01T04:02:23.397Z,1.17
2018-09-01T04:04:51.716Z,1.37
2018-09-01T04:07:19.811Z,2.17
2018-09-01T04:09:47.984Z,1.57
2018-09-01T04:12:16.100Z,1.63
2018-09-01T04:14:44.305Z,1.17
2018-09-01T04:17:12.486Z,1.87
2018-09-01T04:19:40.675Z,1.27
2018-09-01T04:22:08.871Z,3.73
2018-09-01T04:24:36.987Z,0.90
2018-09-01T04:27:05.201Z,4.00
2018-09-01T04:29:33.322Z,1.03
2018-09-01T04:32:01.548Z,1.57
2018-09-01T04:34:29.763Z,3.03
2018-09-01T04:36:58.121Z,4.27
2018-09-01T04:39:26.378Z,1.50
2018-09-01T04:41:54.542Z,2.03
2018-09-01T04:44:22.683Z,1.60
2018-09-01T04:46:50.849Z,3.23
2018-09-01T04:49:18.991Z,1.80
2018-09-01T04:51:47.263Z,1.10
2018-09-01T04:54:15.451Z,1.00
2018-09-01T04:56:43.604Z,2.67
2018-09-01T04:59:11.817Z,1.20
2018-09-01T05:01:40.047Z,2.17
2018-09-01T05:04:08.175Z,1.13
2018-09-01T05:06:36.519Z,1.23
2018-09-01T05:09:06.005Z,1.30
2018-09-01T05:11:34.203Z,1.00
2018-09-01T05:14:02.413Z,1.93
2018-09-01T05:16:30.551Z,3.53
2018-09-01T05:18:58.713Z,1.70
2018-09-01T05:21:26.916Z,2.27
2018-09-01T05:23:55.079Z,2.17
2018-09-01T05:26:23.333Z,1.20
2018-09-01T05:28:51.599Z,1.33
2018-09-01T05:31:19.743Z,0.87
2018-09-01T05:33:48.068Z,3.87
2018-09-01T05:36:16.391Z,1.37
2018-09-01T05:38:44.500Z,2.53
2018-09-01T05:41:12.685Z,2.20
2018-09-01T05:43:40.828Z,1.93
2018-09-01T05:46:08.918Z,1.50
2018-09-01T05:48:37.071Z,3.40
2018-09-01T05:51:05.283Z,1.77
2018-09-01T05:53:33.436Z,3.60
2018-09-01T05:56:01.626Z,1.20
2018-09-01T05:58:29.766Z,1.97
2018-09-01T06:00:57.982Z,3.30
2018-09-01T06:03:26.128Z,3.33
2018-09-01T06:10:52.757Z,2.47
2018-09-01T06:13:20.899Z,1.30
2018-09-01T06:15:49.176Z,1.80
2018-09-01T06:18:17.394Z,2.77
2018-09-01T06:20:45.670Z,2.17
2018-09-01T06:23:13.895Z,3.63
2018-09-01T06:25:42.014Z,2.87
2018-09-01T06:28:16.176Z,4.07
2018-09-01T06:30:47.187Z,3.13
2018-09-01T06:33:15.347Z,4.97
2018-09-01T06:35:43.852Z,3.57
2018-09-01T06:38:13.385Z,4.22
2018-09-01T06:40:41.862Z,2.13
2018-09-01T06:43:10.552Z,3.77
2018-09-01T06:45:38.662Z,2.50
2018-09-01T06:48:07.359Z,2.90
2018-09-01T06:50:35.942Z,3.07
2018-09-01T06:53:04.320Z,2.80
2018-09-01T06:55:33.738Z,6.37
2018-09-01T06:58:02.339Z,2.33
2018-09-01T07:03:08.681Z,2.77
2018-09-01T07:05:36.986Z,2.27
2018-09-01T07:08:05.399Z,3.17
2018-09-01T07:10:33.846Z,4.73
2018-09-01T07:13:02.207Z,1.63
2018-09-01T07:15:30.587Z,2.13
2018-09-01T07:17:58.735Z,2.57
2018-09-01T07:20:27.027Z,4.87
2018-09-01T07:22:55.388Z,2.13
2018-09-01T07:25:23.502Z,1.27
2018-09-01T07:27:51.735Z,2.40
2018-09-01T07:30:29.432Z,4.70
2018-09-01T07:32:57.463Z,1.93
2018-09-01T07:35:25.877Z,2.27
2018-09-01T07:37:54.167Z,4.03
2018-09-01T07:40:22.505Z,2.20
2018-09-01T07:42:50.903Z,1.53
2018-09-01T07:45:19.110Z,12.97
2018-09-01T07:47:47.543Z,2.50
2018-09-01T07:50:15.887Z,4.60
2018-09-01T07:52:44.083Z,11.27
2018-09-01T07:55:12.232Z,3.40
2018-09-01T07:57:40.371Z,2.93
2018-09-01T08:00:08.483Z,1.63
2018-09-01T08:02:36.951Z,2.10
2018-09-01T08:05:05.668Z,2.43
2018-09-01T08:07:33.904Z,5.33
2018-09-01T08:10:06.709Z,3.90
2018-09-01T08:12:35.217Z,1.47
2018-09-01T08:15:03.772Z,1.93
2018-09-01T08:17:32.347Z,1.53
2018-09-01T08:20:00.628Z,3.13
2018-09-01T08:22:28.912Z,2.60
2018-09-01T08:24:57.305Z,3.43
2018-09-01T08:27:25.742Z,2.03
2018-09-01T08:29:54.797Z,2.40
2018-09-01T08:32:23.775Z,2.73
2018-09-01T08:34:51.992Z,1.57
2018-09-01T08:37:20.250Z,9.17
2018-09-01T08:42:27.097Z,4.83
2018-09-01T08:44:56.168Z,1.30
2018-09-01T08:50:11.967Z,1.77
2018-09-01T08:52:43.626Z,2.13
2018-09-01T08:55:11.842Z,3.23
2018-09-01T08:57:40.305Z,3.57
2018-09-01T09:00:08.680Z,3.13
2018-09-01T09:02:36.968Z,1.77
2018-09-01T09:05:05.231Z,5.37
2018-09-01T09:07:34.460Z,1.73
2018-09-01T09:10:03.435Z,1.73
2018-09-01T09:12:31.648Z,3.03
2018-09-01T09:15:00.388Z,0.97
2018-09-01T09:17:31.264Z,1.80
2018-09-01T09:19:59.960Z,2.30
2018-09-01T09:22:29.342Z,1.13
2018-09-01T09:24:58.031Z,1.17
2018-09-01T09:27:28.746Z,1.87
2018-09-01T09:29:58.598Z,1.90
2018-09-01T09:32:26.927Z,1.83
2018-09-01T09:34:55.226Z,1.53
2018-09-01T09:37:23.764Z,1.30
2018-09-01T09:39:51.964Z,2.07
2018-09-01T09:42:20.143Z,2.70
2018-09-01T09:44:48.771Z,2.93
2018-09-01T09:47:16.941Z,2.73
2018-09-01T09:49:45.130Z,2.30
2018-09-01T09:52:13.326Z,4.10
2018-09-01T09:54:41.521Z,2.00
2018-09-01T09:57:09.752Z,4.23
2018-09-01T09:59:38.196Z,1.50
2018-09-01T10:02:14.801Z,1.70
2018-09-01T10:04:55.870Z,1.20
2018-09-01T10:10:09.503Z,1.43
2018-09-01T10:12:38.155Z,2.37
2018-09-01T10:15:06.540Z,1.50
2018-09-01T10:17:58.142Z,1.17
2018-09-01T10:20:30.128Z,1.57
2018-09-01T10:22:58.377Z,1.67
2018-09-01T10:25:27.672Z,1.30
2018-09-01T10:28:00.352Z,0.90
2018-09-01T10:30:29.411Z,2.00
2018-09-01T10:32:57.847Z,0.60
2018-09-01T10:35:26.031Z,0.87
2018-09-01T10:37:54.963Z,2.07
2018-09-01T10:40:23.235Z,1.00
2018-09-01T10:42:51.578Z,1.00
2018-09-01T10:45:19.955Z,1.37
2018-09-01T10:47:49.037Z,1.40
2018-09-01T10:50:17.418Z,2.80
2018-09-01T10:52:45.846Z,3.47
2018-09-01T10:55:35.639Z,1.03
2018-09-01T10:58:04.120Z,1.97
2018-09-01T11:00:33.955Z,2.77
2018-09-01T11:03:04.605Z,3.03
2018-09-01T11:05:34.931Z,1.17
2018-09-01T11:08:03.031Z,1.30
2018-09-01T11:10:31.155Z,1.10
2018-09-01T11:12:59.681Z,2.23
2018-09-01T11:15:27.983Z,1.40
2018-09-01T11:17:56.198Z,1.33
2018-09-01T11:20:24.355Z,1.57
2018-09-01T11:22:53.403Z,5.73
2018-09-01T11:25:21.564Z,1.00
2018-09-01T11:27:49.740Z,2.37
2018-09-01T11:30:17.969Z,2.30
2018-09-01T11:32:46.158Z,2.07
2018-09-01T11:35:14.322Z,0.90
2018-09-01T11:37:42.564Z,5.67
2018-09-01T11:40:11.416Z,0.77
2018-09-01T11:42:39.730Z,1.57
2018-09-01T11:45:07.792Z,0.80
2018-09-01T11:47:35.922Z,1.73
2018-09-01T11:50:04.206Z,1.03
2018-09-01T11:52:32.381Z,1.67
2018-09-01T11:55:00.560Z,7.20
2018-09-01T11:57:28.675Z,6.83
2018-09-01T11:59:56.831Z,4.77
2018-09-01T12:02:25.004Z,4.00
2018-09-01T12:04:53.337Z,5.57
2018-09-01T12:07:21.500Z,4.90
2018-09-01T12:09:49.627Z,5.03
2018-09-01T12:12:17.774Z,1.90
2018-09-01T12:14:45.938Z,4.30
2018-09-01T12:17:14.142Z,4.93
2018-09-01T12:19:42.267Z,3.33
2018-09-01T12:22:10.426Z,1.83
2018-09-01T12:24:38.542Z,1.50
2018-09-01T12:27:06.688Z,3.93
2018-09-01T12:29:34.887Z,2.70
2018-09-01T12:32:03.992Z,2.57
2018-09-01T12:34:32.647Z,1.73
2018-09-01T12:37:03.288Z,1.23
2018-09-01T12:39:31.588Z,2.67
2018-09-01T12:41:59.792Z,1.17
2018-09-01T12:44:27.985Z,2.40
2018-09-01T12:46:56.126Z,2.53
2018-09-01T12:49:24.312Z,2.43
2018-09-01T12:51:52.810Z,0.93
2018-09-01T12:54:20.955Z,2.23
2018-09-01T12:56:49.224Z,1.07
2018-09-01T12:59:17.434Z,1.10
2018-09-01T13:01:45.776Z,1.97
2018-09-01T13:04:13.966Z,1.40
2018-09-01T13:06:42.070Z,0.70
2018-09-01T13:09:10.174Z,1.73
2018-09-01T13:11:38.306Z,1.27
2018-09-01T13:14:06.474Z,0.53
2018-09-01T13:16:34.705Z,1.67
2018-09-01T13:19:02.891Z,0.70
2018-09-01T13:21:31.063Z,1.00
2018-09-01T13:23:59.209Z,1.93
2018-09-01T13:26:27.346Z,2.03
2018-09-01T13:28:55.487Z,1.03
2018-09-01T13:31:23.730Z,1.17
2018-09-01T13:33:51.862Z,0.50
2018-09-01T13:36:20.014Z,3.57
2018-09-01T13:38:48.291Z,1.10
2018-09-01T13:41:19.124Z,6.73
2018-09-01T13:43:47.222Z,5.77
2018-09-01T13:46:15.391Z,2.00
2018-09-01T13:48:43.537Z,0.77
2018-09-01T13:51:11.715Z,2.50
2018-09-01T13:53:39.846Z,1.37
2018-09-01T13:56:07.924Z,1.53
2018-09-01T13:58:36.014Z,3.57
2018-09-01T14:01:04.234Z,1.60
2018-09-01T14:03:32.334Z,1.47
2018-09-01T14:06:00.419Z,3.30
2018-09-01T14:08:28.574Z,1.90
2018-09-01T14:10:56.760Z,0.60
2018-09-01T14:13:24.939Z,1.83
2018-09-01T14:15:53.074Z,3.40
2018-09-01T14:18:21.246Z,2.30
2018-09-01T14:20:49.420Z,3.63
2018-09-01T14:23:17.578Z,1.67
2018-09-01T14:25:45.706Z,2.37
2018-09-01T14:28:14.026Z,4.33
2018-09-01T14:30:42.247Z,2.63
2018-09-01T14:33:10.615Z,1.83
2018-09-01T14:35:38.979Z,3.90
2018-09-01T14:38:07.118Z,6.37
2018-09-01T14:40:35.338Z,3.23
2018-09-01T14:43:03.474Z,6.47
2018-09-01T14:45:31.684Z,3.53
2018-09-01T14:47:59.861Z,3.17
2018-09-01T14:50:28.354Z,2.03
2018-09-01T14:52:56.519Z,4.33
2018-09-01T14:55:24.732Z,7.23
2018-09-01T14:57:52.845Z,2.17
2018-09-01T15:00:21.050Z,2.33
2018-09-01T15:02:50.816Z,2.87
2018-09-01T15:05:18.968Z,2.70
2018-09-01T15:07:47.077Z,6.17
2018-09-01T15:10:15.942Z,2.07
2018-09-01T15:15:23.063Z,3.13
2018-09-01T15:17:51.185Z,4.10
2018-09-01T15:20:19.274Z,1.87
2018-09-01T15:22:47.479Z,6.67
2018-09-01T15:25:15.613Z,3.37
2018-09-01T15:27:43.686Z,2.40
2018-09-01T15:30:11.831Z,2.27
2018-09-01T15:32:40.158Z,2.80
2018-09-01T15:35:08.333Z,3.53
2018-09-01T15:37:36.446Z,3.20
2018-09-01T15:40:04.634Z,2.33
2018-09-01T15:42:37.005Z,1.47
2018-09-01T15:45:13.725Z,2.73
2018-09-01T15:47:42.845Z,2.33
2018-09-01T15:50:11.012Z,1.43
2018-09-01T15:52:39.137Z,3.43
2018-09-01T15:55:07.763Z,2.97
2018-09-01T15:57:35.945Z,4.57
2018-09-01T16:00:04.102Z,3.83
2018-09-01T16:02:32.280Z,2.60
2018-09-01T16:05:00.390Z,4.83
2018-09-01T16:07:28.486Z,1.97
2018-09-01T16:09:56.664Z,3.60
2018-09-01T16:12:24.909Z,4.37
2018-09-01T16:14:53.102Z,4.00
2018-09-01T16:17:21.237Z,2.83
2018-09-01T16:19:49.360Z,2.53
2018-09-01T16:22:17.490Z,5.50
2018-09-01T16:24:45.661Z,6.80
2018-09-01T16:27:13.839Z,63.53
2018-09-01T16:29:42.088Z,31.13
2018-09-01T16:32:10.207Z,35.33
2018-09-01T16:34:38.550Z,16.43
2018-09-01T16:37:06.562Z,24.60
2018-09-01T16:39:34.770Z,23.20
2018-09-01T16:42:02.864Z,12.20
2018-09-01T16:44:31.008Z,14.80
2018-09-01T16:46:59.170Z,7.57
2018-09-01T16:49:27.306Z,13.43
2018-09-01T16:51:55.705Z,43.43
2018-09-01T16:54:23.978Z,22.37
2018-09-01T16:56:52.090Z,12.63
2018-09-01T16:59:20.218Z,15.43
2018-09-01T17:01:48.331Z,7.03
2018-09-01T17:04:16.438Z,6.43
2018-09-01T17:06:44.604Z,8.33
2018-09-01T17:09:12.959Z,6.70
2018-09-01T17:11:41.728Z,6.70
2018-09-01T17:14:10.109Z,4.97
2018-09-01T17:16:38.256Z,4.07
2018-09-01T17:19:06.370Z,6.10
2018-09-01T17:21:34.489Z,4.30
2018-09-01T17:24:02.627Z,2.27
2018-09-01T17:26:30.974Z,2.00
2018-09-01T17:28:59.133Z,3.50
2018-09-01T17:31:27.314Z,3.10
2018-09-01T17:33:55.519Z,2.33
2018-09-01T17:36:23.678Z,2.07
2018-09-01T17:38:51.786Z,2.43
2018-09-01T17:41:19.947Z,2.60
2018-09-01T17:43:48.463Z,4.23
2018-09-01T17:46:16.784Z,4.83
2018-09-01T17:48:45.909Z,7.13
2018-09-01T17:51:14.233Z,8.33
2018-09-01T17:53:42.368Z,6.63
2018-09-01T17:58:49.964Z,8.83
2018-09-01T18:01:19.584Z,5.03
2018-09-01T18:03:47.882Z,4.43
2018-09-01T18:06:16.091Z,7.30
2018-09-01T18:08:44.414Z,6.20
2018-09-01T18:11:12.545Z,5.40
2018-09-01T18:13:40.969Z,4.97
2018-09-01T18:16:09.170Z,8.70
2018-09-01T18:18:37.272Z,5.03
2018-09-01T18:21:05.413Z,11.57
2018-09-01T18:23:33.680Z,3.80
2018-09-01T18:26:01.699Z,4.13
2018-09-01T18:28:29.819Z,3.70
2018-09-01T18:30:57.951Z,3.87
2018-09-01T18:33:26.055Z,5.17
2018-09-01T18:35:54.528Z,5.80
2018-09-01T18:38:22.664Z,5.00
2018-09-01T18:40:50.854Z,4.47
2018-09-01T18:43:19.823Z,10.27
2018-09-01T18:45:48.071Z,5.07
2018-09-01T18:48:16.296Z,3.43
2018-09-01T18:50:44.442Z,4.43
2018-09-01T18:53:12.635Z,7.83
2018-09-01T18:55:40.767Z,3.83
2018-09-01T18:58:08.926Z,6.43
2018-09-01T19:00:37.096Z,4.50
2018-09-01T19:03:05.327Z,3.87
2018-09-01T19:05:33.551Z,5.17
2018-09-01T19:08:01.845Z,6.13
2018-09-01T19:10:30.067Z,4.07
2018-09-01T19:12:58.263Z,4.73
2018-09-01T19:15:26.492Z,2.47
2018-09-01T19:17:54.646Z,3.13
2018-09-01T19:20:22.746Z,6.97
2018-09-01T19:22:50.785Z,3.47
2018-09-01T19:25:18.977Z,5.20
2018-09-01T19:27:48.427Z,5.03
2018-09-01T19:30:16.571Z,5.50
2018-09-01T19:32:45.480Z,6.13
2018-09-01T19:35:13.667Z,4.40
2018-09-01T19:37:44.659Z,7.20
2018-09-01T19:40:12.812Z,6.03
2018-09-01T19:42:40.948Z,5.30
2018-09-01T19:45:09.226Z,5.43
2018-09-01T19:47:37.451Z,2.73
2018-09-01T19:50:05.554Z,3.97
2018-09-01T19:52:33.686Z,5.80
2018-09-01T19:55:02.554Z,7.50
2018-09-01T19:57:30.855Z,9.60
2018-09-01T19:59:58.964Z,8.53
2018-09-01T20:02:27.156Z,6.93
2018-09-01T20:04:55.855Z,13.97
2018-09-01T20:07:24.134Z,8.70
2018-09-01T20:09:53.104Z,10.33
2018-09-01T20:12:21.223Z,9.30
2018-09-01T20:14:49.342Z,8.43
2018-09-01T20:17:17.433Z,9.27
2018-09-01T20:19:45.602Z,10.40
2018-09-01T20:22:13.848Z,9.63
2018-09-01T20:24:42.038Z,15.80
2018-09-01T20:27:10.128Z,6.77
2018-09-01T20:29:38.306Z,8.13
2018-09-01T20:32:06.582Z,6.77
2018-09-01T20:34:37.344Z,9.77
2018-09-01T20:37:06.315Z,9.87
2018-09-01T20:39:34.588Z,9.33
2018-09-01T20:42:02.802Z,9.73
2018-09-01T20:44:31.452Z,8.07
2018-09-01T20:46:59.939Z,9.07
2018-09-01T20:49:28.069Z,7.27
2018-09-01T20:51:56.242Z,7.37
2018-09-01T20:54:24.354Z,8.07
2018-09-01T20:56:52.477Z,9.23
2018-09-01T20:59:20.574Z,7.33
2018-09-01T21:01:48.727Z,6.23
2018-09-01T21:04:16.917Z,5.77
2018-09-01T21:06:45.059Z,4.77
2018-09-01T21:09:13.239Z,7.37
2018-09-01T21:11:41.982Z,6.80
2018-09-01T21:14:10.667Z,7.03
2018-09-01T21:16:38.952Z,6.40
2018-09-01T21:19:07.158Z,11.27
2018-09-01T21:21:35.274Z,6.03
2018-09-01T21:24:03.914Z,6.00
2018-09-01T21:26:32.070Z,5.87
2018-09-01T21:29:00.138Z,8.53
2018-09-01T21:31:28.267Z,6.17
2018-09-01T21:33:56.882Z,4.37
2018-09-01T21:36:25.412Z,6.17
2018-09-01T21:38:53.539Z,3.43
2018-09-01T21:41:21.750Z,5.23
2018-09-01T21:43:50.189Z,4.63
2018-09-01T21:46:18.303Z,5.57
2018-09-01T21:48:46.406Z,5.60
2018-09-01T21:51:14.568Z,6.27
2018-09-01T21:53:42.617Z,6.07
2018-09-01T21:56:10.834Z,4.27
2018-09-01T21:58:38.966Z,5.33
2018-09-01T22:01:12.974Z,3.17
2018-09-01T22:03:48.170Z,4.23
2018-09-01T22:06:17.419Z,4.03
2018-09-01T22:08:45.592Z,4.47
2018-09-01T22:11:13.683Z,4.43
2018-09-01T22:13:42.079Z,5.70
2018-09-01T22:16:10.268Z,8.07
2018-09-01T22:18:38.806Z,5.37
2018-09-01T22:21:07.511Z,5.40
2018-09-01T22:23:35.998Z,6.73
2018-09-01T22:26:04.235Z,4.20
2018-09-01T22:28:32.461Z,3.33
2018-09-01T22:31:00.547Z,3.73
2018-09-01T22:33:29.261Z,4.40
2018-09-01T22:35:57.453Z,3.33
2018-09-01T22:38:25.579Z,3.53
2018-09-01T22:40:54.191Z,6.80
2018-09-01T22:43:22.449Z,3.17
2018-09-01T22:45:50.564Z,4.07
2018-09-01T22:48:18.763Z,5.67
2018-09-01T22:50:46.958Z,6.73
2018-09-01T22:53:15.103Z,3.50
2018-09-01T22:55:43.281Z,4.70
2018-09-01T22:58:11.455Z,4.03
2018-09-01T23:00:39.619Z,6.80
2018-09-01T23:03:07.743Z,4.50
2018-09-01T23:05:35.890Z,4.90
2018-09-01T23:08:04.027Z,3.33
2018-09-01T23:10:32.178Z,3.00
2018-09-01T23:13:00.401Z,4.33
2018-09-01T23:15:28.520Z,3.50
2018-09-01T23:17:56.661Z,4.70
2018-09-01T23:20:25.369Z,5.07
2018-09-01T23:22:53.552Z,6.07
2018-09-01T23:25:21.723Z,3.20
2018-09-01T23:27:50.673Z,4.70
2018-09-01T23:30:18.864Z,5.57
2018-09-01T23:32:47.559Z,9.00
2018-09-01T23:35:15.691Z,5.60
2018-09-01T23:37:43.803Z,3.80
2018-09-01T23:40:11.887Z,3.43
2018-09-01T23:42:40.043Z,4.67
2018-09-01T23:45:08.195Z,4.53
2018-09-01T23:47:36.287Z,4.43
2018-09-01T23:50:04.842Z,2.93
2018-09-01T23:52:33.032Z,3.63
2018-09-01T23:55:01.290Z,3.83
2018-09-01T23:57:29.483Z,2.57
2018-09-01T23:59:57.651Z,3.27
